sensor_id;sensor_type;location;lat;lon;timestamp;P1;durP1;ratioP1;P2;durP2;ratioP2
77089;SDS011;66028;53.558;9.950;2024-02-26T00:00:34;8.33;;;4.73;;
77089;SDS011;66028;53.558;9.950;2024-02-26T00:03:00;9.87;;;6.00;;
77089;SDS011;66028;53.558;9.950;2024-02-26T00:05:25;11.35;;;6.15;;
77089;SDS011;66028;53.558;9.950;2024-02-26T00:07:50;11.73;;;6.03;;
77089;SDS011;66028;53.558;9.950;2024-02-26T00:10:16;9.00;;;5.47;;
77089;SDS011;66028;53.558;9.950;2024-02-26T00:12:41;13.00;;;5.97;;
77089;SDS011;66028;53.558;9.950;2024-02-26T00:15:06;8.17;;;5.10;;
77089;SDS011;66028;53.558;9.950;2024-02-26T00:17:32;9.75;;;5.75;;
77089;SDS011;66028;53.558;9.950;2024-02-26T00:19:58;10.57;;;6.03;;
77089;SDS011;66028;53.558;9.950;2024-02-26T00:22:23;9.80;;;6.13;;
77089;SDS011;66028;53.558;9.950;2024-02-26T00:24:48;10.27;;;5.97;;
77089;SDS011;66028;53.558;9.950;2024-02-26T00:27:13;10.30;;;5.90;;
77089;SDS011;66028;53.558;9.950;2024-02-26T00:29:39;9.33;;;5.50;;
77089;SDS011;66028;53.558;9.950;2024-02-26T00:32:04;9.63;;;6.23;;
77089;SDS011;66028;53.558;9.950;2024-02-26T00:34:30;10.00;;;6.20;;
77089;SDS011;66028;53.558;9.950;2024-02-26T00:36:55;8.93;;;6.07;;
77089;SDS011;66028;53.558;9.950;2024-02-26T00:39:21;8.53;;;5.97;;
77089;SDS011;66028;53.558;9.950;2024-02-26T00:41:46;9.97;;;5.50;;
77089;SDS011;66028;53.558;9.950;2024-02-26T00:44:11;8.87;;;5.73;;
77089;SDS011;66028;53.558;9.950;2024-02-26T00:46:37;11.27;;;6.33;;
77089;SDS011;66028;53.558;9.950;2024-02-26T00:49:02;10.33;;;5.80;;
77089;SDS011;66028;53.558;9.950;2024-02-26T00:51:27;8.63;;;6.00;;
77089;SDS011;66028;53.558;9.950;2024-02-26T00:53:53;12.07;;;6.82;;
77089;SDS011;66028;53.558;9.950;2024-02-26T00:56:19;10.93;;;5.85;;
77089;SDS011;66028;53.558;9.950;2024-02-26T00:58:44;11.60;;;7.03;;
77089;SDS011;66028;53.558;9.950;2024-02-26T01:01:10;11.53;;;6.33;;
77089;SDS011;66028;53.558;9.950;2024-02-26T01:03:35;11.97;;;7.33;;
77089;SDS011;66028;53.558;9.950;2024-02-26T01:06:00;12.07;;;7.23;;
77089;SDS011;66028;53.558;9.950;2024-02-26T01:08:25;12.47;;;6.93;;
77089;SDS011;66028;53.558;9.950;2024-02-26T01:10:51;12.23;;;7.10;;
77089;SDS011;66028;53.558;9.950;2024-02-26T01:13:16;10.83;;;6.90;;
77089;SDS011;66028;53.558;9.950;2024-02-26T01:15:41;18.20;;;8.47;;
77089;SDS011;66028;53.558;9.950;2024-02-26T01:18:08;14.88;;;7.40;;
77089;SDS011;66028;53.558;9.950;2024-02-26T01:20:34;10.90;;;6.67;;
77089;SDS011;66028;53.558;9.950;2024-02-26T01:22:59;14.70;;;7.57;;
77089;SDS011;66028;53.558;9.950;2024-02-26T01:25:24;12.70;;;7.73;;
77089;SDS011;66028;53.558;9.950;2024-02-26T01:27:49;10.90;;;6.73;;
77089;SDS011;66028;53.558;9.950;2024-02-26T01:30:15;13.90;;;7.00;;
77089;SDS011;66028;53.558;9.950;2024-02-26T01:32:41;12.02;;;6.45;;
77089;SDS011;66028;53.558;9.950;2024-02-26T01:35:07;11.75;;;6.78;;
77089;SDS011;66028;53.558;9.950;2024-02-26T01:37:35;13.15;;;7.13;;
77089;SDS011;66028;53.558;9.950;2024-02-26T01:40:01;12.45;;;6.70;;
77089;SDS011;66028;53.558;9.950;2024-02-26T01:42:28;14.40;;;7.15;;
77089;SDS011;66028;53.558;9.950;2024-02-26T01:44:54;10.20;;;7.07;;
77089;SDS011;66028;53.558;9.950;2024-02-26T01:47:19;12.77;;;6.97;;
77089;SDS011;66028;53.558;9.950;2024-02-26T01:49:45;14.10;;;7.53;;
77089;SDS011;66028;53.558;9.950;2024-02-26T01:52:10;10.67;;;6.57;;
77089;SDS011;66028;53.558;9.950;2024-02-26T01:54:36;13.48;;;7.10;;
77089;SDS011;66028;53.558;9.950;2024-02-26T01:57:03;14.52;;;7.32;;
77089;SDS011;66028;53.558;9.950;2024-02-26T01:59:30;11.95;;;6.82;;
77089;SDS011;66028;53.558;9.950;2024-02-26T02:01:57;12.63;;;7.15;;
77089;SDS011;66028;53.558;9.950;2024-02-26T02:04:26;16.20;;;7.43;;
77089;SDS011;66028;53.558;9.950;2024-02-26T02:06:52;15.82;;;7.63;;
77089;SDS011;66028;53.558;9.950;2024-02-26T02:09:17;15.27;;;8.00;;
77089;SDS011;66028;53.558;9.950;2024-02-26T02:11:43;13.23;;;8.02;;
77089;SDS011;66028;53.558;9.950;2024-02-26T02:14:09;14.48;;;8.05;;
77089;SDS011;66028;53.558;9.950;2024-02-26T02:16:34;13.00;;;7.07;;
77089;SDS011;66028;53.558;9.950;2024-02-26T02:18:59;14.30;;;7.63;;
77089;SDS011;66028;53.558;9.950;2024-02-26T02:21:24;13.47;;;7.90;;
77089;SDS011;66028;53.558;9.950;2024-02-26T02:23:50;17.57;;;7.83;;
77089;SDS011;66028;53.558;9.950;2024-02-26T02:26:15;14.53;;;7.73;;
77089;SDS011;66028;53.558;9.950;2024-02-26T02:28:41;14.38;;;8.10;;
77089;SDS011;66028;53.558;9.950;2024-02-26T02:31:06;12.95;;;7.38;;
77089;SDS011;66028;53.558;9.950;2024-02-26T02:33:32;14.30;;;7.93;;
77089;SDS011;66028;53.558;9.950;2024-02-26T02:35:59;15.90;;;8.10;;
77089;SDS011;66028;53.558;9.950;2024-02-26T02:38:24;15.23;;;8.57;;
77089;SDS011;66028;53.558;9.950;2024-02-26T02:40:51;16.27;;;8.07;;
77089;SDS011;66028;53.558;9.950;2024-02-26T02:43:16;15.75;;;8.00;;
77089;SDS011;66028;53.558;9.950;2024-02-26T02:45:42;17.00;;;9.40;;
77089;SDS011;66028;53.558;9.950;2024-02-26T02:48:07;17.07;;;10.40;;
77089;SDS011;66028;53.558;9.950;2024-02-26T02:50:32;15.80;;;9.17;;
77089;SDS011;66028;53.558;9.950;2024-02-26T02:52:58;22.25;;;11.15;;
77089;SDS011;66028;53.558;9.950;2024-02-26T02:55:23;18.37;;;9.93;;
77089;SDS011;66028;53.558;9.950;2024-02-26T02:57:48;18.97;;;10.13;;
77089;SDS011;66028;53.558;9.950;2024-02-26T03:00:13;18.97;;;9.77;;
77089;SDS011;66028;53.558;9.950;2024-02-26T03:02:39;20.50;;;9.63;;
77089;SDS011;66028;53.558;9.950;2024-02-26T03:05:04;21.67;;;10.83;;
77089;SDS011;66028;53.558;9.950;2024-02-26T03:07:30;17.92;;;9.65;;
77089;SDS011;66028;53.558;9.950;2024-02-26T03:09:55;22.43;;;11.23;;
77089;SDS011;66028;53.558;9.950;2024-02-26T03:12:21;22.80;;;12.53;;
77089;SDS011;66028;53.558;9.950;2024-02-26T03:14:46;21.83;;;12.10;;
77089;SDS011;66028;53.558;9.950;2024-02-26T03:17:11;21.97;;;11.83;;
77089;SDS011;66028;53.558;9.950;2024-02-26T03:19:36;22.03;;;11.73;;
77089;SDS011;66028;53.558;9.950;2024-02-26T03:22:02;21.17;;;10.63;;
77089;SDS011;66028;53.558;9.950;2024-02-26T03:24:27;23.93;;;11.80;;
77089;SDS011;66028;53.558;9.950;2024-02-26T03:26:52;20.98;;;12.05;;
77089;SDS011;66028;53.558;9.950;2024-02-26T03:29:18;21.13;;;12.10;;
77089;SDS011;66028;53.558;9.950;2024-02-26T03:31:43;24.67;;;12.47;;
77089;SDS011;66028;53.558;9.950;2024-02-26T03:34:08;23.00;;;12.03;;
77089;SDS011;66028;53.558;9.950;2024-02-26T03:36:34;21.87;;;11.60;;
77089;SDS011;66028;53.558;9.950;2024-02-26T03:38:59;24.85;;;12.18;;
77089;SDS011;66028;53.558;9.950;2024-02-26T03:41:24;22.03;;;11.93;;
77089;SDS011;66028;53.558;9.950;2024-02-26T03:43:49;23.07;;;12.23;;
77089;SDS011;66028;53.558;9.950;2024-02-26T03:46:15;28.27;;;14.23;;
77089;SDS011;66028;53.558;9.950;2024-02-26T03:48:41;23.27;;;12.50;;
77089;SDS011;66028;53.558;9.950;2024-02-26T03:51:08;25.17;;;12.25;;
77089;SDS011;66028;53.558;9.950;2024-02-26T03:53:33;25.60;;;12.70;;
77089;SDS011;66028;53.558;9.950;2024-02-26T03:56:02;23.47;;;12.93;;
77089;SDS011;66028;53.558;9.950;2024-02-26T03:58:28;24.73;;;12.93;;
77089;SDS011;66028;53.558;9.950;2024-02-26T04:00:53;25.93;;;12.10;;
77089;SDS011;66028;53.558;9.950;2024-02-26T04:03:19;23.63;;;12.37;;
77089;SDS011;66028;53.558;9.950;2024-02-26T04:05:44;22.37;;;12.90;;
77089;SDS011;66028;53.558;9.950;2024-02-26T04:08:09;21.93;;;12.67;;
77089;SDS011;66028;53.558;9.950;2024-02-26T04:13:03;24.38;;;12.02;;
77089;SDS011;66028;53.558;9.950;2024-02-26T04:15:28;23.02;;;12.70;;
77089;SDS011;66028;53.558;9.950;2024-02-26T04:17:54;23.20;;;13.20;;
77089;SDS011;66028;53.558;9.950;2024-02-26T04:20:19;25.48;;;13.10;;
77089;SDS011;66028;53.558;9.950;2024-02-26T04:22:44;25.33;;;12.13;;
77089;SDS011;66028;53.558;9.950;2024-02-26T04:25:10;22.43;;;12.87;;
77089;SDS011;66028;53.558;9.950;2024-02-26T04:27:35;24.50;;;13.27;;
77089;SDS011;66028;53.558;9.950;2024-02-26T04:30:00;26.30;;;14.00;;
77089;SDS011;66028;53.558;9.950;2024-02-26T04:32:26;22.20;;;11.87;;
77089;SDS011;66028;53.558;9.950;2024-02-26T04:34:51;27.00;;;12.43;;
77089;SDS011;66028;53.558;9.950;2024-02-26T04:37:16;26.77;;;13.03;;
77089;SDS011;66028;53.558;9.950;2024-02-26T04:39:42;24.23;;;11.90;;
77089;SDS011;66028;53.558;9.950;2024-02-26T04:42:07;26.17;;;13.00;;
77089;SDS011;66028;53.558;9.950;2024-02-26T04:44:32;24.70;;;12.80;;
77089;SDS011;66028;53.558;9.950;2024-02-26T04:46:57;24.07;;;12.60;;
77089;SDS011;66028;53.558;9.950;2024-02-26T04:49:23;24.57;;;12.77;;
77089;SDS011;66028;53.558;9.950;2024-02-26T04:51:48;26.17;;;13.33;;
77089;SDS011;66028;53.558;9.950;2024-02-26T04:54:13;23.93;;;12.67;;
77089;SDS011;66028;53.558;9.950;2024-02-26T04:56:38;27.37;;;12.80;;
77089;SDS011;66028;53.558;9.950;2024-02-26T04:59:04;25.73;;;13.57;;
77089;SDS011;66028;53.558;9.950;2024-02-26T05:01:29;24.40;;;12.40;;
77089;SDS011;66028;53.558;9.950;2024-02-26T05:03:54;23.43;;;11.73;;
77089;SDS011;66028;53.558;9.950;2024-02-26T05:06:19;23.63;;;11.80;;
77089;SDS011;66028;53.558;9.950;2024-02-26T05:08:45;23.20;;;12.57;;
77089;SDS011;66028;53.558;9.950;2024-02-26T05:11:11;30.15;;;13.52;;
77089;SDS011;66028;53.558;9.950;2024-02-26T05:13:36;28.70;;;14.15;;
77089;SDS011;66028;53.558;9.950;2024-02-26T05:16:01;27.03;;;13.17;;
77089;SDS011;66028;53.558;9.950;2024-02-26T05:18:27;27.88;;;13.23;;
77089;SDS011;66028;53.558;9.950;2024-02-26T05:20:52;27.67;;;13.65;;
77089;SDS011;66028;53.558;9.950;2024-02-26T05:23:18;23.57;;;12.13;;
77089;SDS011;66028;53.558;9.950;2024-02-26T05:25:43;25.50;;;12.87;;
77089;SDS011;66028;53.558;9.950;2024-02-26T05:28:10;27.00;;;13.32;;
77089;SDS011;66028;53.558;9.950;2024-02-26T05:30:36;29.93;;;14.47;;
77089;SDS011;66028;53.558;9.950;2024-02-26T05:33:01;27.90;;;12.97;;
77089;SDS011;66028;53.558;9.950;2024-02-26T05:35:26;27.37;;;13.30;;
77089;SDS011;66028;53.558;9.950;2024-02-26T05:37:51;30.90;;;15.23;;
77089;SDS011;66028;53.558;9.950;2024-02-26T05:40:17;25.87;;;13.13;;
77089;SDS011;66028;53.558;9.950;2024-02-26T05:42:42;25.07;;;13.40;;
77089;SDS011;66028;53.558;9.950;2024-02-26T05:45:09;29.92;;;14.18;;
77089;SDS011;66028;53.558;9.950;2024-02-26T05:47:35;27.77;;;13.10;;
77089;SDS011;66028;53.558;9.950;2024-02-26T05:50:03;31.83;;;15.35;;
77089;SDS011;66028;53.558;9.950;2024-02-26T05:52:29;28.30;;;13.70;;
77089;SDS011;66028;53.558;9.950;2024-02-26T05:54:55;26.25;;;13.10;;
77089;SDS011;66028;53.558;9.950;2024-02-26T05:57:21;26.73;;;13.97;;
77089;SDS011;66028;53.558;9.950;2024-02-26T05:59:46;27.93;;;13.87;;
77089;SDS011;66028;53.558;9.950;2024-02-26T06:02:11;22.73;;;12.43;;
77089;SDS011;66028;53.558;9.950;2024-02-26T06:04:37;29.03;;;12.87;;
77089;SDS011;66028;53.558;9.950;2024-02-26T06:07:02;25.43;;;12.80;;
77089;SDS011;66028;53.558;9.950;2024-02-26T06:09:27;22.27;;;11.47;;
77089;SDS011;66028;53.558;9.950;2024-02-26T06:11:53;25.27;;;12.88;;
77089;SDS011;66028;53.558;9.950;2024-02-26T06:14:18;23.65;;;11.38;;
77089;SDS011;66028;53.558;9.950;2024-02-26T06:16:44;24.67;;;12.43;;
77089;SDS011;66028;53.558;9.950;2024-02-26T06:19:09;24.30;;;12.70;;
77089;SDS011;66028;53.558;9.950;2024-02-26T06:21:35;26.48;;;12.30;;
77089;SDS011;66028;53.558;9.950;2024-02-26T06:24:00;26.87;;;12.53;;
77089;SDS011;66028;53.558;9.950;2024-02-26T06:26:26;22.88;;;12.23;;
77089;SDS011;66028;53.558;9.950;2024-02-26T06:28:53;27.27;;;13.45;;
77089;SDS011;66028;53.558;9.950;2024-02-26T06:31:19;24.83;;;12.27;;
77089;SDS011;66028;53.558;9.950;2024-02-26T06:33:46;31.23;;;13.30;;
77089;SDS011;66028;53.558;9.950;2024-02-26T06:36:11;25.23;;;12.63;;
77089;SDS011;66028;53.558;9.950;2024-02-26T06:38:37;21.35;;;12.20;;
77089;SDS011;66028;53.558;9.950;2024-02-26T06:41:02;21.07;;;11.60;;
77089;SDS011;66028;53.558;9.950;2024-02-26T06:43:28;25.83;;;12.98;;
77089;SDS011;66028;53.558;9.950;2024-02-26T06:45:53;21.43;;;12.33;;
77089;SDS011;66028;53.558;9.950;2024-02-26T06:48:18;26.00;;;12.00;;
77089;SDS011;66028;53.558;9.950;2024-02-26T06:50:44;22.37;;;12.43;;
77089;SDS011;66028;53.558;9.950;2024-02-26T06:53:09;24.67;;;12.00;;
77089;SDS011;66028;53.558;9.950;2024-02-26T06:55:34;25.57;;;12.87;;
77089;SDS011;66028;53.558;9.950;2024-02-26T06:58:00;24.03;;;12.70;;
77089;SDS011;66028;53.558;9.950;2024-02-26T07:00:25;22.88;;;11.90;;
77089;SDS011;66028;53.558;9.950;2024-02-26T07:02:50;21.27;;;11.47;;
77089;SDS011;66028;53.558;9.950;2024-02-26T07:05:15;26.23;;;12.13;;
77089;SDS011;66028;53.558;9.950;2024-02-26T07:07:41;21.80;;;11.27;;
77089;SDS011;66028;53.558;9.950;2024-02-26T07:10:06;22.23;;;12.13;;
77089;SDS011;66028;53.558;9.950;2024-02-26T07:12:32;21.70;;;11.48;;
77089;SDS011;66028;53.558;9.950;2024-02-26T07:14:57;24.88;;;11.98;;
77089;SDS011;66028;53.558;9.950;2024-02-26T07:17:23;21.42;;;12.27;;
77089;SDS011;66028;53.558;9.950;2024-02-26T07:19:48;24.17;;;12.43;;
77089;SDS011;66028;53.558;9.950;2024-02-26T07:22:13;25.40;;;12.87;;
77089;SDS011;66028;53.558;9.950;2024-02-26T07:24:39;25.88;;;12.68;;
77089;SDS011;66028;53.558;9.950;2024-02-26T07:27:05;27.13;;;12.43;;
77089;SDS011;66028;53.558;9.950;2024-02-26T07:29:30;23.77;;;12.13;;
77089;SDS011;66028;53.558;9.950;2024-02-26T07:31:55;25.50;;;12.88;;
77089;SDS011;66028;53.558;9.950;2024-02-26T07:34:21;23.88;;;10.93;;
77089;SDS011;66028;53.558;9.950;2024-02-26T07:36:52;22.95;;;11.88;;
77089;SDS011;66028;53.558;9.950;2024-02-26T07:39:17;21.58;;;11.88;;
77089;SDS011;66028;53.558;9.950;2024-02-26T07:41:43;20.87;;;11.07;;
77089;SDS011;66028;53.558;9.950;2024-02-26T07:44:11;18.25;;;10.20;;
77089;SDS011;66028;53.558;9.950;2024-02-26T07:46:36;23.97;;;11.17;;
77089;SDS011;66028;53.558;9.950;2024-02-26T07:49:02;23.33;;;11.00;;
77089;SDS011;66028;53.558;9.950;2024-02-26T07:51:27;19.08;;;10.77;;
77089;SDS011;66028;53.558;9.950;2024-02-26T07:53:53;24.00;;;11.50;;
77089;SDS011;66028;53.558;9.950;2024-02-26T07:56:18;20.93;;;10.70;;
77089;SDS011;66028;53.558;9.950;2024-02-26T07:58:43;20.03;;;11.27;;
77089;SDS011;66028;53.558;9.950;2024-02-26T08:01:08;19.50;;;10.90;;
77089;SDS011;66028;53.558;9.950;2024-02-26T08:03:34;21.90;;;11.73;;
77089;SDS011;66028;53.558;9.950;2024-02-26T08:05:59;20.87;;;10.20;;
77089;SDS011;66028;53.558;9.950;2024-02-26T08:08:24;22.13;;;10.70;;
77089;SDS011;66028;53.558;9.950;2024-02-26T08:10:49;18.77;;;9.83;;
77089;SDS011;66028;53.558;9.950;2024-02-26T08:13:15;18.47;;;10.40;;
77089;SDS011;66028;53.558;9.950;2024-02-26T08:15:40;22.90;;;10.93;;
77089;SDS011;66028;53.558;9.950;2024-02-26T08:18:05;21.50;;;10.97;;
77089;SDS011;66028;53.558;9.950;2024-02-26T08:20:31;22.27;;;10.50;;
77089;SDS011;66028;53.558;9.950;2024-02-26T08:22:56;17.17;;;10.23;;
77089;SDS011;66028;53.558;9.950;2024-02-26T08:25:22;19.58;;;11.43;;
77089;SDS011;66028;53.558;9.950;2024-02-26T08:27:48;18.17;;;9.73;;
77089;SDS011;66028;53.558;9.950;2024-02-26T08:30:14;17.77;;;10.23;;
77089;SDS011;66028;53.558;9.950;2024-02-26T08:32:42;19.45;;;10.65;;
77089;SDS011;66028;53.558;9.950;2024-02-26T08:35:10;18.90;;;10.52;;
77089;SDS011;66028;53.558;9.950;2024-02-26T08:37:36;19.60;;;10.45;;
77089;SDS011;66028;53.558;9.950;2024-02-26T08:40:01;17.43;;;10.27;;
77089;SDS011;66028;53.558;9.950;2024-02-26T08:42:26;18.97;;;10.60;;
77089;SDS011;66028;53.558;9.950;2024-02-26T08:44:51;19.60;;;10.40;;
77089;SDS011;66028;53.558;9.950;2024-02-26T08:47:17;20.03;;;10.30;;
77089;SDS011;66028;53.558;9.950;2024-02-26T08:49:42;19.13;;;10.50;;
77089;SDS011;66028;53.558;9.950;2024-02-26T08:52:09;19.50;;;11.48;;
77089;SDS011;66028;53.558;9.950;2024-02-26T08:54:34;18.85;;;10.07;;
77089;SDS011;66028;53.558;9.950;2024-02-26T08:56:59;18.03;;;10.30;;
77089;SDS011;66028;53.558;9.950;2024-02-26T08:59:25;16.47;;;9.73;;
77089;SDS011;66028;53.558;9.950;2024-02-26T09:01:50;19.27;;;10.10;;
77089;SDS011;66028;53.558;9.950;2024-02-26T09:04:15;18.10;;;9.53;;
77089;SDS011;66028;53.558;9.950;2024-02-26T09:06:41;18.00;;;9.43;;
77089;SDS011;66028;53.558;9.950;2024-02-26T09:09:06;14.77;;;8.90;;
77089;SDS011;66028;53.558;9.950;2024-02-26T09:11:31;17.67;;;9.37;;
77089;SDS011;66028;53.558;9.950;2024-02-26T09:13:56;15.83;;;8.40;;
77089;SDS011;66028;53.558;9.950;2024-02-26T09:16:22;17.37;;;9.53;;
77089;SDS011;66028;53.558;9.950;2024-02-26T09:23:37;15.47;;;8.23;;
77089;SDS011;66028;53.558;9.950;2024-02-26T09:26:04;15.43;;;8.47;;
77089;SDS011;66028;53.558;9.950;2024-02-26T09:28:30;14.65;;;8.00;;
77089;SDS011;66028;53.558;9.950;2024-02-26T09:30:59;13.52;;;7.90;;
77089;SDS011;66028;53.558;9.950;2024-02-26T09:33:25;14.23;;;8.13;;
77089;SDS011;66028;53.558;9.950;2024-02-26T09:35:50;12.20;;;7.57;;
77089;SDS011;66028;53.558;9.950;2024-02-26T09:38:15;13.73;;;8.20;;
77089;SDS011;66028;53.558;9.950;2024-02-26T09:40:41;13.23;;;7.63;;
77089;SDS011;66028;53.558;9.950;2024-02-26T09:45:35;11.90;;;6.65;;
77089;SDS011;66028;53.558;9.950;2024-02-26T09:48:01;12.77;;;7.40;;
77089;SDS011;66028;53.558;9.950;2024-02-26T09:50:29;12.48;;;7.53;;
77089;SDS011;66028;53.558;9.950;2024-02-26T09:55:19;12.27;;;6.82;;
77089;SDS011;66028;53.558;9.950;2024-02-26T09:57:45;11.37;;;6.90;;
77089;SDS011;66028;53.558;9.950;2024-02-26T10:00:15;14.70;;;6.95;;
77089;SDS011;66028;53.558;9.950;2024-02-26T10:02:45;12.07;;;7.10;;
77089;SDS011;66028;53.558;9.950;2024-02-26T10:05:11;13.05;;;7.40;;
77089;SDS011;66028;53.558;9.950;2024-02-26T10:07:39;13.63;;;7.25;;
77089;SDS011;66028;53.558;9.950;2024-02-26T10:10:05;16.30;;;7.47;;
77089;SDS011;66028;53.558;9.950;2024-02-26T10:12:30;15.63;;;8.18;;
77089;SDS011;66028;53.558;9.950;2024-02-26T10:14:57;14.27;;;7.97;;
77089;SDS011;66028;53.558;9.950;2024-02-26T10:17:22;15.83;;;8.93;;
77089;SDS011;66028;53.558;9.950;2024-02-26T10:19:48;13.30;;;7.03;;
77089;SDS011;66028;53.558;9.950;2024-02-26T10:22:13;14.50;;;8.77;;
77089;SDS011;66028;53.558;9.950;2024-02-26T10:27:03;14.83;;;8.20;;
77089;SDS011;66028;53.558;9.950;2024-02-26T10:29:30;16.48;;;9.02;;
77089;SDS011;66028;53.558;9.950;2024-02-26T10:34:22;15.80;;;8.00;;
77089;SDS011;66028;53.558;9.950;2024-02-26T10:36:48;14.27;;;8.13;;
77089;SDS011;66028;53.558;9.950;2024-02-26T10:39:14;16.00;;;7.97;;
77089;SDS011;66028;53.558;9.950;2024-02-26T10:44:07;14.20;;;7.57;;
77089;SDS011;66028;53.558;9.950;2024-02-26T10:46:34;15.32;;;8.82;;
77089;SDS011;66028;53.558;9.950;2024-02-26T10:51:26;14.23;;;7.55;;
77089;SDS011;66028;53.558;9.950;2024-02-26T10:53:55;15.18;;;7.45;;
77089;SDS011;66028;53.558;9.950;2024-02-26T10:56:26;15.30;;;8.10;;
77089;SDS011;66028;53.558;9.950;2024-02-26T10:58:52;14.57;;;7.72;;
77089;SDS011;66028;53.558;9.950;2024-02-26T11:01:19;14.57;;;8.45;;
77089;SDS011;66028;53.558;9.950;2024-02-26T11:03:46;13.02;;;7.38;;
77089;SDS011;66028;53.558;9.950;2024-02-26T11:06:15;16.20;;;8.85;;
77089;SDS011;66028;53.558;9.950;2024-02-26T11:11:06;12.98;;;6.78;;
77089;SDS011;66028;53.558;9.950;2024-02-26T11:13:32;14.35;;;7.55;;
77089;SDS011;66028;53.558;9.950;2024-02-26T11:15:58;14.27;;;7.78;;
77089;SDS011;66028;53.558;9.950;2024-02-26T11:18:26;15.23;;;7.85;;
77089;SDS011;66028;53.558;9.950;2024-02-26T11:20:52;13.68;;;7.45;;
77089;SDS011;66028;53.558;9.950;2024-02-26T11:23:22;14.48;;;7.65;;
77089;SDS011;66028;53.558;9.950;2024-02-26T11:28:14;15.27;;;7.72;;
77089;SDS011;66028;53.558;9.950;2024-02-26T11:30:44;14.10;;;7.28;;
77089;SDS011;66028;53.558;9.950;2024-02-26T11:33:12;17.40;;;8.77;;
77089;SDS011;66028;53.558;9.950;2024-02-26T11:35:40;15.20;;;7.80;;
77089;SDS011;66028;53.558;9.950;2024-02-26T11:38:05;14.63;;;7.72;;
77089;SDS011;66028;53.558;9.950;2024-02-26T11:40:32;13.13;;;7.55;;
77089;SDS011;66028;53.558;9.950;2024-02-26T11:42:58;13.95;;;7.68;;
77089;SDS011;66028;53.558;9.950;2024-02-26T11:48:05;15.90;;;7.00;;
77089;SDS011;66028;53.558;9.950;2024-02-26T11:50:38;15.07;;;7.97;;
77089;SDS011;66028;53.558;9.950;2024-02-26T11:58:40;13.60;;;7.22;;
77089;SDS011;66028;53.558;9.950;2024-02-26T12:01:35;15.63;;;7.75;;
77089;SDS011;66028;53.558;9.950;2024-02-26T12:04:11;12.50;;;7.18;;
77089;SDS011;66028;53.558;9.950;2024-02-26T12:06:52;11.52;;;6.50;;
77089;SDS011;66028;53.558;9.950;2024-02-26T12:09:38;12.00;;;6.32;;
77089;SDS011;66028;53.558;9.950;2024-02-26T12:12:05;10.93;;;6.47;;
77089;SDS011;66028;53.558;9.950;2024-02-26T12:14:39;11.00;;;6.25;;
77089;SDS011;66028;53.558;9.950;2024-02-26T12:17:19;12.10;;;6.43;;
77089;SDS011;66028;53.558;9.950;2024-02-26T12:19:47;9.32;;;5.53;;
77089;SDS011;66028;53.558;9.950;2024-02-26T12:22:13;11.13;;;6.13;;
77089;SDS011;66028;53.558;9.950;2024-02-26T12:24:39;12.23;;;6.93;;
77089;SDS011;66028;53.558;9.950;2024-02-26T12:27:05;11.90;;;6.50;;
77089;SDS011;66028;53.558;9.950;2024-02-26T12:29:31;12.00;;;6.15;;
77089;SDS011;66028;53.558;9.950;2024-02-26T12:34:22;11.52;;;5.85;;
77089;SDS011;66028;53.558;9.950;2024-02-26T12:39:13;10.73;;;6.30;;
77089;SDS011;66028;53.558;9.950;2024-02-26T12:44:04;12.82;;;7.13;;
77089;SDS011;66028;53.558;9.950;2024-02-26T12:46:29;11.77;;;6.00;;
77089;SDS011;66028;53.558;9.950;2024-02-26T12:48:56;11.50;;;6.78;;
77089;SDS011;66028;53.558;9.950;2024-02-26T12:51:23;13.05;;;7.03;;
77089;SDS011;66028;53.558;9.950;2024-02-26T12:53:49;11.77;;;6.47;;
77089;SDS011;66028;53.558;9.950;2024-02-26T12:56:17;13.23;;;7.05;;
77089;SDS011;66028;53.558;9.950;2024-02-26T12:58:43;12.15;;;7.30;;
77089;SDS011;66028;53.558;9.950;2024-02-26T13:01:14;10.50;;;6.18;;
77089;SDS011;66028;53.558;9.950;2024-02-26T13:03:41;11.85;;;6.82;;
77089;SDS011;66028;53.558;9.950;2024-02-26T13:06:06;11.52;;;6.60;;
77089;SDS011;66028;53.558;9.950;2024-02-26T13:10:58;14.07;;;7.05;;
77089;SDS011;66028;53.558;9.950;2024-02-26T13:13:25;13.07;;;7.93;;
77089;SDS011;66028;53.558;9.950;2024-02-26T13:18:27;11.90;;;6.18;;
77089;SDS011;66028;53.558;9.950;2024-02-26T13:20:53;11.30;;;6.43;;
77089;SDS011;66028;53.558;9.950;2024-02-26T13:25:44;10.85;;;5.97;;
77089;SDS011;66028;53.558;9.950;2024-02-26T13:30:42;10.13;;;5.30;;
77089;SDS011;66028;53.558;9.950;2024-02-26T13:33:15;10.30;;;6.25;;
77089;SDS011;66028;53.558;9.950;2024-02-26T13:35:41;8.53;;;5.03;;
77089;SDS011;66028;53.558;9.950;2024-02-26T13:38:06;10.87;;;5.80;;
77089;SDS011;66028;53.558;9.950;2024-02-26T13:40:31;10.55;;;6.38;;
77089;SDS011;66028;53.558;9.950;2024-02-26T13:42:57;9.60;;;5.13;;
77089;SDS011;66028;53.558;9.950;2024-02-26T13:45:22;10.00;;;6.37;;
77089;SDS011;66028;53.558;9.950;2024-02-26T13:47:47;11.10;;;5.83;;
77089;SDS011;66028;53.558;9.950;2024-02-26T13:50:13;11.60;;;6.17;;
77089;SDS011;66028;53.558;9.950;2024-02-26T13:52:38;9.80;;;5.90;;
77089;SDS011;66028;53.558;9.950;2024-02-26T13:55:03;11.13;;;5.60;;
77089;SDS011;66028;53.558;9.950;2024-02-26T13:57:29;13.48;;;6.78;;
77089;SDS011;66028;53.558;9.950;2024-02-26T13:59:55;12.10;;;7.03;;
77089;SDS011;66028;53.558;9.950;2024-02-26T14:02:20;9.32;;;5.22;;
77089;SDS011;66028;53.558;9.950;2024-02-26T14:04:46;9.77;;;5.82;;
77089;SDS011;66028;53.558;9.950;2024-02-26T14:07:12;11.73;;;6.80;;
77089;SDS011;66028;53.558;9.950;2024-02-26T14:09:38;10.35;;;5.88;;
77089;SDS011;66028;53.558;9.950;2024-02-26T14:12:03;11.88;;;7.05;;
77089;SDS011;66028;53.558;9.950;2024-02-26T14:14:29;11.02;;;6.45;;
77089;SDS011;66028;53.558;9.950;2024-02-26T14:16:57;13.13;;;6.70;;
77089;SDS011;66028;53.558;9.950;2024-02-26T14:19:23;11.98;;;7.38;;
77089;SDS011;66028;53.558;9.950;2024-02-26T14:21:48;11.97;;;7.23;;
77089;SDS011;66028;53.558;9.950;2024-02-26T14:24:14;11.40;;;6.60;;
77089;SDS011;66028;53.558;9.950;2024-02-26T14:26:39;12.73;;;7.53;;
77089;SDS011;66028;53.558;9.950;2024-02-26T14:29:05;12.50;;;6.25;;
77089;SDS011;66028;53.558;9.950;2024-02-26T14:31:31;10.98;;;6.82;;
77089;SDS011;66028;53.558;9.950;2024-02-26T14:33:57;10.67;;;6.97;;
77089;SDS011;66028;53.558;9.950;2024-02-26T14:36:22;11.40;;;6.90;;
77089;SDS011;66028;53.558;9.950;2024-02-26T14:38:47;11.25;;;6.50;;
77089;SDS011;66028;53.558;9.950;2024-02-26T14:41:13;11.15;;;6.95;;
77089;SDS011;66028;53.558;9.950;2024-02-26T14:43:38;10.83;;;6.77;;
77089;SDS011;66028;53.558;9.950;2024-02-26T14:46:03;12.10;;;6.77;;
77089;SDS011;66028;53.558;9.950;2024-02-26T14:48:30;13.37;;;7.20;;
77089;SDS011;66028;53.558;9.950;2024-02-26T14:50:56;12.27;;;6.75;;
77089;SDS011;66028;53.558;9.950;2024-02-26T14:53:22;12.50;;;6.65;;
77089;SDS011;66028;53.558;9.950;2024-02-26T14:55:47;12.68;;;7.05;;
77089;SDS011;66028;53.558;9.950;2024-02-26T14:58:13;13.87;;;7.57;;
77089;SDS011;66028;53.558;9.950;2024-02-26T15:00:38;11.67;;;6.73;;
77089;SDS011;66028;53.558;9.950;2024-02-26T15:03:04;13.45;;;7.82;;
77089;SDS011;66028;53.558;9.950;2024-02-26T15:05:31;14.10;;;7.47;;
77089;SDS011;66028;53.558;9.950;2024-02-26T15:07:56;12.93;;;7.78;;
77089;SDS011;66028;53.558;9.950;2024-02-26T15:10:22;12.40;;;6.73;;
77089;SDS011;66028;53.558;9.950;2024-02-26T15:15:12;10.85;;;6.43;;
77089;SDS011;66028;53.558;9.950;2024-02-26T15:17:38;13.17;;;6.77;;